createdAt,value
2019-05-22T13:00:33.053Z,4.15
2019-05-22T13:03:05.324Z,3.42
2019-05-22T13:05:39.748Z,3.47
2019-05-22T13:08:12.995Z,4.45
2019-05-22T13:10:47.012Z,4.03
2019-05-22T13:13:18.307Z,4.20
2019-05-22T13:15:50.077Z,4.28
2019-05-22T13:18:28.157Z,3.95
2019-05-22T13:21:08.127Z,3.77
2019-05-22T13:23:47.996Z,3.98
2019-05-22T13:26:27.578Z,4.10
2019-05-22T13:29:08.922Z,4.35
2019-05-22T13:31:40.633Z,3.47
2019-05-22T13:34:14.233Z,3.30
2019-05-22T13:36:47.160Z,3.70
2019-05-22T13:39:22.328Z,2.80
2019-05-22T13:41:54.241Z,3.55
2019-05-22T13:44:26.263Z,3.80
2019-05-22T13:46:58.063Z,3.33
2019-05-22T13:49:33.189Z,4.00
2019-05-22T13:52:04.464Z,2.42
2019-05-22T13:54:35.978Z,2.20
2019-05-22T13:57:12.940Z,1.92
2019-05-22T13:59:47.396Z,2.17
2019-05-22T14:02:18.470Z,2.00
2019-05-22T14:04:49.918Z,2.33
2019-05-22T14:07:21.081Z,2.77
2019-05-22T14:09:53.841Z,6.22
2019-05-22T14:12:25.490Z,3.27
2019-05-22T14:14:56.621Z,2.37
2019-05-22T14:17:27.745Z,2.00
2019-05-22T14:20:00.302Z,1.57
2019-05-22T14:22:31.429Z,1.52
2019-05-22T14:25:02.570Z,1.40
2019-05-22T14:27:33.573Z,1.30
2019-05-22T14:30:08.669Z,1.35
2019-05-22T14:32:40.719Z,1.40
2019-05-22T14:35:12.436Z,1.30
2019-05-22T14:37:43.497Z,1.20
2019-05-22T14:40:16.146Z,1.17
2019-05-22T14:42:47.360Z,1.30
2019-05-22T14:45:18.722Z,1.57
2019-05-22T14:47:49.731Z,1.90
2019-05-22T14:50:22.569Z,1.85
2019-05-22T14:52:53.494Z,2.40
2019-05-22T14:55:24.973Z,2.50
2019-05-22T14:57:56.638Z,9.55
2019-05-22T15:00:30.108Z,6.10
2019-05-22T15:03:01.725Z,4.28
2019-05-22T15:05:32.988Z,3.47
2019-05-22T15:08:04.990Z,2.95
2019-05-22T15:10:37.848Z,2.60
2019-05-22T15:13:09.968Z,2.50
2019-05-22T15:15:41.531Z,2.40
2019-05-22T15:18:12.656Z,2.27
2019-05-22T15:21:03.000Z,2.83
2019-05-22T15:23:34.338Z,16.07
2019-05-22T15:26:05.728Z,3.65
2019-05-22T15:28:36.876Z,3.75
2019-05-22T15:31:08.291Z,2.47
2019-05-22T15:33:39.720Z,2.30
2019-05-22T15:36:14.081Z,1.98
2019-05-22T15:38:46.515Z,1.70
2019-05-22T15:41:17.946Z,1.77
2019-05-22T15:43:52.991Z,2.22
2019-05-22T15:46:24.939Z,1.95
2019-05-22T15:48:57.962Z,2.15
2019-05-22T15:51:32.536Z,2.20
2019-05-22T15:54:06.632Z,2.47
2019-05-22T15:56:39.762Z,2.75
2019-05-22T15:59:13.160Z,2.40
2019-05-22T16:01:46.023Z,2.52
2019-05-22T16:04:18.694Z,2.33
2019-05-22T16:06:49.839Z,2.65
2019-05-22T16:09:23.973Z,2.70
2019-05-22T16:11:56.032Z,3.20
2019-05-22T16:14:29.771Z,3.40
2019-05-22T16:17:02.310Z,3.12
2019-05-22T16:19:35.233Z,2.90
2019-05-22T16:22:09.308Z,3.02
2019-05-22T16:24:41.440Z,2.47
2019-05-22T16:27:14.726Z,2.85
2019-05-22T16:29:47.222Z,2.90
2019-05-22T16:32:19.443Z,2.70
2019-05-22T16:34:50.454Z,2.92
2019-05-22T16:37:22.309Z,3.25
2019-05-22T16:39:54.750Z,3.22
2019-05-22T16:42:27.267Z,3.30
2019-05-22T16:44:58.101Z,3.67
2019-05-22T16:47:33.399Z,3.45
2019-05-22T16:50:06.272Z,3.02
2019-05-22T16:52:40.560Z,2.60
2019-05-22T16:55:13.407Z,3.05
2019-05-22T16:57:44.577Z,3.30
2019-05-22T17:00:17.305Z,15.43
2019-05-22T17:02:49.990Z,8.10
2019-05-22T17:05:22.926Z,6.50
2019-05-22T17:07:54.313Z,3.70
2019-05-22T17:10:25.655Z,3.30
2019-05-22T17:12:59.074Z,3.62
2019-05-22T17:15:30.217Z,3.70
2019-05-22T17:18:01.498Z,3.50
2019-05-22T17:20:32.611Z,4.15
2019-05-22T17:23:04.106Z,4.00
2019-05-22T17:25:35.646Z,4.10
2019-05-22T17:28:08.528Z,4.40
2019-05-22T17:30:40.413Z,3.92
2019-05-22T17:33:12.398Z,4.22
2019-05-22T17:35:44.925Z,3.90
2019-05-22T17:38:17.503Z,3.70
2019-05-22T17:40:48.718Z,4.00
2019-05-22T17:43:21.513Z,4.20
2019-05-22T17:45:53.451Z,4.00
2019-05-22T17:48:24.822Z,4.25
2019-05-22T17:50:55.853Z,3.70
2019-05-22T17:53:27.552Z,3.85
2019-05-22T17:55:58.774Z,4.00
2019-05-22T17:58:30.437Z,3.70
2019-05-22T18:01:02.433Z,3.77
2019-05-22T18:03:34.076Z,3.92
2019-05-22T18:06:06.328Z,4.40
2019-05-22T18:08:37.852Z,4.35
2019-05-22T18:11:09.303Z,4.62
2019-05-22T18:13:58.268Z,4.50
2019-05-22T18:16:30.902Z,4.15
2019-05-22T18:19:03.363Z,3.72
2019-05-22T18:21:34.887Z,4.03
2019-05-22T18:24:07.352Z,4.28
2019-05-22T18:26:38.496Z,11.40
2019-05-22T18:29:09.708Z,12.13
2019-05-22T18:31:40.850Z,4.75
2019-05-22T18:34:11.918Z,4.95
2019-05-22T18:36:42.947Z,4.20
2019-05-22T18:39:15.687Z,3.77
2019-05-22T18:41:46.597Z,3.70
2019-05-22T18:44:17.766Z,6.20
2019-05-22T18:46:48.891Z,5.90
2019-05-22T18:49:20.286Z,7.42
2019-05-22T18:51:51.224Z,6.08
2019-05-22T18:54:22.811Z,4.65
2019-05-22T18:56:53.742Z,4.50
2019-05-22T18:59:26.118Z,3.90
2019-05-22T19:01:57.205Z,3.70
2019-05-22T19:04:28.259Z,3.40
2019-05-22T19:06:59.304Z,3.22
2019-05-22T19:09:31.560Z,3.70
2019-05-22T19:12:02.877Z,3.40
2019-05-22T19:14:34.127Z,3.27
2019-05-22T19:17:05.288Z,3.20
2019-05-22T19:19:36.366Z,3.12
2019-05-22T19:22:07.873Z,3.22
2019-05-22T19:24:39.054Z,3.52
2019-05-22T19:27:10.439Z,3.22
2019-05-22T19:29:42.871Z,3.20
2019-05-22T19:32:14.326Z,3.42
2019-05-22T19:34:45.783Z,3.17
2019-05-22T19:37:17.221Z,2.80
2019-05-22T19:39:50.027Z,2.67
2019-05-22T19:42:22.509Z,3.00
2019-05-22T19:44:54.111Z,15.58
2019-05-22T19:47:25.618Z,28.27
2019-05-22T19:49:57.236Z,16.23
2019-05-22T19:52:40.968Z,10.53
2019-05-22T19:55:00.903Z,5.15
2019-05-22T19:57:32.838Z,4.58
2019-05-22T20:00:05.571Z,4.35
2019-05-22T20:02:37.940Z,7.28
2019-05-22T20:05:09.943Z,21.48
2019-05-22T20:07:41.400Z,19.80
2019-05-22T20:10:14.552Z,8.98
2019-05-22T20:12:46.203Z,12.28
2019-05-22T20:15:19.262Z,14.63
2019-05-22T20:17:51.397Z,12.68
2019-05-22T20:20:24.820Z,7.80
2019-05-22T20:22:57.050Z,5.30
2019-05-22T20:25:28.742Z,4.83
2019-05-22T20:28:02.589Z,4.50
2019-05-22T20:30:34.870Z,4.25
2019-05-22T20:33:06.901Z,4.62
2019-05-22T20:35:38.506Z,4.47
2019-05-22T20:38:09.814Z,4.53
2019-05-22T20:40:42.116Z,4.35
2019-05-22T20:43:13.869Z,4.50
2019-05-22T20:45:46.509Z,4.10
2019-05-22T20:48:27.135Z,4.25
2019-05-22T20:51:02.289Z,4.40
2019-05-22T20:53:52.157Z,5.17
2019-05-22T20:56:10.711Z,4.95
2019-05-22T20:58:43.543Z,4.92
2019-05-22T21:01:15.540Z,5.58
2019-05-22T21:03:46.770Z,5.25
2019-05-22T21:06:20.112Z,4.65
2019-05-22T21:08:51.170Z,5.25
2019-05-22T21:11:25.574Z,4.78
2019-05-22T21:13:56.791Z,5.00
2019-05-22T21:16:27.918Z,5.35
2019-05-22T21:18:59.575Z,5.60
2019-05-22T21:21:30.956Z,15.98
2019-05-22T21:24:11.238Z,24.37
2019-05-22T21:26:35.711Z,12.95
2019-05-22T21:29:08.538Z,25.00
2019-05-22T21:31:40.165Z,20.02
2019-05-22T21:34:11.600Z,10.45
2019-05-22T21:36:43.117Z,6.53
2019-05-22T21:42:06.395Z,5.03
2019-05-22T21:44:38.766Z,4.25
2019-05-22T21:47:10.929Z,4.75
2019-05-22T21:49:44.668Z,4.50
2019-05-22T21:52:16.642Z,4.45
2019-05-22T21:54:47.812Z,4.53
2019-05-22T21:57:19.402Z,4.90
2019-05-22T21:59:51.650Z,4.00
2019-05-22T22:02:27.145Z,4.25
2019-05-22T22:04:58.190Z,4.67
2019-05-22T22:07:31.089Z,4.60
2019-05-22T22:10:04.206Z,4.75
2019-05-22T22:12:36.872Z,4.92
2019-05-22T22:18:33.983Z,4.97
2019-05-22T22:21:06.176Z,4.70
2019-05-22T22:23:37.803Z,4.70
2019-05-22T22:26:24.667Z,4.95
2019-05-22T22:28:42.305Z,5.20
2019-05-22T22:31:15.410Z,5.72
2019-05-22T22:33:49.064Z,5.20
2019-05-22T22:36:20.312Z,6.15
2019-05-22T22:38:52.310Z,5.85
2019-05-22T22:41:23.747Z,5.35
2019-05-22T22:43:56.507Z,5.92
2019-05-22T22:46:48.152Z,5.85
2019-05-22T22:49:21.700Z,5.20
2019-05-22T22:51:53.576Z,5.20
2019-05-22T22:54:25.162Z,5.70
2019-05-22T22:56:56.624Z,5.25
2019-05-22T22:59:28.895Z,5.58
2019-05-22T23:02:02.174Z,5.58
2019-05-22T23:04:33.468Z,5.70
2019-05-22T23:07:06.147Z,5.45
2019-05-22T23:09:41.013Z,5.90
2019-05-22T23:12:14.277Z,6.20
2019-05-22T23:14:48.562Z,5.78
2019-05-22T23:17:20.911Z,5.70
2019-05-22T23:19:52.212Z,5.78
2019-05-22T23:22:22.891Z,6.45
2019-05-22T23:24:56.666Z,6.30
2019-05-22T23:27:29.609Z,6.62
2019-05-22T23:30:02.138Z,7.05
2019-05-22T23:32:33.774Z,7.05
2019-05-22T23:35:07.557Z,7.65
2019-05-22T23:37:40.042Z,8.20
2019-05-22T23:40:14.146Z,9.58
2019-05-22T23:42:46.056Z,8.80
2019-05-22T23:45:23.151Z,10.53
2019-05-22T23:47:57.764Z,11.12
2019-05-22T23:50:31.275Z,10.05
2019-05-22T23:53:02.728Z,8.88
2019-05-22T23:55:34.578Z,9.13
2019-05-22T23:58:07.449Z,9.50
